createdAt,value
2023-02-13T00:00:37.098Z,10.11
2023-02-13T00:03:04.911Z,10.14
2023-02-13T00:05:33.035Z,10.12
2023-02-13T00:08:03.134Z,10.23
2023-02-13T00:10:30.972Z,10.15
2023-02-13T00:12:58.624Z,10.07
2023-02-13T00:15:26.309Z,10.13
2023-02-13T00:17:53.895Z,9.97
2023-02-13T00:20:21.639Z,10.05
2023-02-13T00:22:49.378Z,9.99
2023-02-13T00:25:18.610Z,10.03
2023-02-13T00:27:46.012Z,10.03
2023-02-13T00:30:14.805Z,9.93
2023-02-13T00:32:42.360Z,10.06
2023-02-13T00:35:10.072Z,10.12
2023-02-13T00:37:37.668Z,10.09
2023-02-13T00:40:05.716Z,10.17
2023-02-13T00:42:35.260Z,10.13
2023-02-13T00:45:03.882Z,10.16
2023-02-13T00:47:31.501Z,10.14
2023-02-13T00:49:59.179Z,10.07
2023-02-13T00:52:26.834Z,10.09
2023-02-13T00:54:54.377Z,10.12
2023-02-13T00:57:21.855Z,10.10
2023-02-13T00:59:51.867Z,10.17
2023-02-13T01:04:54.912Z,10.18
2023-02-13T01:07:22.590Z,10.00
2023-02-13T01:09:50.326Z,10.07
2023-02-13T01:12:17.977Z,9.97
2023-02-13T01:14:45.733Z,10.03
2023-02-13T01:17:14.979Z,10.08
2023-02-13T01:19:42.792Z,10.03
2023-02-13T01:22:10.744Z,9.96
2023-02-13T01:24:38.575Z,10.01
2023-02-13T01:29:47.879Z,9.97
2023-02-13T01:32:17.274Z,10.01
2023-02-13T01:34:45.059Z,9.95
2023-02-13T01:37:12.721Z,9.94
2023-02-13T01:39:40.513Z,10.08
2023-02-13T01:55:34.109Z,10.05
2023-02-13T01:58:06.152Z,10.08
2023-02-13T02:00:33.783Z,10.04
2023-02-13T02:03:15.291Z,9.93
2023-02-13T02:05:43.512Z,9.95
2023-02-13T02:08:14.385Z,9.99
2023-02-13T02:10:43.721Z,9.99
2023-02-13T02:13:13.062Z,10.01
2023-02-13T02:15:42.045Z,10.06
2023-02-13T02:18:15.500Z,10.03
2023-02-13T02:21:04.087Z,9.93
2023-02-13T02:24:14.550Z,9.96
2023-02-13T02:27:18.128Z,10.00
2023-02-13T02:30:18.875Z,10.00
2023-02-13T02:32:58.893Z,9.92
2023-02-13T02:35:37.180Z,9.92
2023-02-13T02:38:18.966Z,9.92
2023-02-13T02:40:58.997Z,9.83
2023-02-13T02:43:39.747Z,9.81
2023-02-13T02:46:14.916Z,9.96
2023-02-13T02:49:04.028Z,9.88
2023-02-13T02:51:39.077Z,9.97
2023-02-13T02:54:25.904Z,9.92
2023-02-13T02:56:53.960Z,9.87
2023-02-13T02:59:39.840Z,9.85
2023-02-13T03:02:27.590Z,9.74
2023-02-13T03:05:27.135Z,9.85
2023-02-13T03:07:55.532Z,9.86
2023-02-13T03:10:46.773Z,9.84
2023-02-13T03:13:24.521Z,9.73
2023-02-13T03:16:12.041Z,9.79
2023-02-13T03:18:59.666Z,9.73
2023-02-13T03:21:51.982Z,9.76
2023-02-13T03:24:26.725Z,9.80
2023-02-13T03:26:59.565Z,9.71
2023-02-13T03:29:56.252Z,9.59
2023-02-13T03:32:29.995Z,9.77
2023-02-13T03:35:20.649Z,9.80
2023-02-13T03:37:57.404Z,9.76
2023-02-13T03:40:30.148Z,9.75
2023-02-13T03:43:04.635Z,9.82
2023-02-13T03:45:51.937Z,9.84
2023-02-13T03:48:39.689Z,9.76
2023-02-13T03:51:08.649Z,9.72
2023-02-13T03:53:39.881Z,9.77
2023-02-13T03:56:26.118Z,9.70
2023-02-13T03:59:17.306Z,9.81
2023-02-13T04:01:49.937Z,9.74
2023-02-13T04:04:25.395Z,9.73
2023-02-13T04:06:59.880Z,9.75
2023-02-13T04:09:30.427Z,9.75
2023-02-13T04:12:04.611Z,9.78
2023-02-13T04:14:37.545Z,9.77
2023-02-13T04:17:06.739Z,9.75
2023-02-13T04:19:34.610Z,9.71
2023-02-13T04:22:03.056Z,9.72
2023-02-13T04:24:31.983Z,9.77
2023-02-13T04:26:59.622Z,9.80
2023-02-13T04:29:27.848Z,9.80
2023-02-13T04:31:55.670Z,9.74
2023-02-13T04:34:25.550Z,9.75
2023-02-13T04:36:53.312Z,9.72
2023-02-13T04:39:20.950Z,9.70
2023-02-13T04:41:50.304Z,9.76
2023-02-13T04:44:17.935Z,9.77
2023-02-13T04:46:45.620Z,9.73
2023-02-13T04:49:13.254Z,9.73
2023-02-13T04:51:42.565Z,9.76
2023-02-13T04:54:11.873Z,9.74
2023-02-13T04:56:39.398Z,9.70
2023-02-13T04:59:08.391Z,9.70
2023-02-13T05:01:36.129Z,9.70
2023-02-13T05:04:03.817Z,9.70
2023-02-13T05:06:31.874Z,9.67
2023-02-13T05:08:59.616Z,9.64
2023-02-13T05:11:28.088Z,9.67
2023-02-13T05:13:55.960Z,9.63
2023-02-13T05:16:25.926Z,9.66
2023-02-13T05:18:55.792Z,9.67
2023-02-13T05:21:43.394Z,9.68
2023-02-13T05:24:11.045Z,9.67
2023-02-13T05:26:38.747Z,9.65
2023-02-13T05:29:24.964Z,9.64
2023-02-13T05:31:59.703Z,9.63
2023-02-13T05:34:28.923Z,9.64
2023-02-13T05:36:57.009Z,9.65
2023-02-13T05:39:24.563Z,9.64
2023-02-13T05:41:52.183Z,9.65
2023-02-13T05:44:19.714Z,9.68
2023-02-13T05:46:49.779Z,9.66
2023-02-13T05:49:21.344Z,9.63
2023-02-13T05:51:48.907Z,9.63
2023-02-13T05:54:16.877Z,9.63
2023-02-13T05:56:45.087Z,9.58
2023-02-13T05:59:12.695Z,9.63
2023-02-13T06:01:40.511Z,9.60
2023-02-13T06:04:08.186Z,9.61
2023-02-13T06:06:37.040Z,9.56
2023-02-13T06:09:04.766Z,9.60
2023-02-13T06:11:32.416Z,9.64
2023-02-13T06:13:59.772Z,9.63
2023-02-13T06:16:27.362Z,9.64
2023-02-13T06:18:54.804Z,9.62
2023-02-13T06:21:22.661Z,9.59
2023-02-13T06:23:51.625Z,9.55
2023-02-13T06:26:19.082Z,9.58
2023-02-13T06:28:46.713Z,9.57
2023-02-13T06:31:14.234Z,9.59
2023-02-13T06:33:41.760Z,9.58
2023-02-13T06:36:09.384Z,9.57
2023-02-13T06:38:36.882Z,9.60
2023-02-13T06:41:06.942Z,9.59
2023-02-13T06:43:34.359Z,9.58
2023-02-13T06:46:05.852Z,9.51
2023-02-13T06:48:33.383Z,9.50
2023-02-13T06:51:04.475Z,9.57
2023-02-13T06:53:32.037Z,9.55
2023-02-13T06:55:59.585Z,9.56
2023-02-13T06:58:28.457Z,9.55
2023-02-13T07:00:56.468Z,9.55
2023-02-13T07:03:24.385Z,9.54
2023-02-13T07:05:52.765Z,9.56
2023-02-13T07:08:20.919Z,9.53
2023-02-13T07:10:48.412Z,9.58
2023-02-13T07:13:16.642Z,9.48
2023-02-13T07:15:45.970Z,9.54
2023-02-13T07:18:13.620Z,9.52
2023-02-13T07:20:41.112Z,9.49
2023-02-13T07:23:08.657Z,9.49
2023-02-13T07:25:36.349Z,9.51
2023-02-13T07:28:05.025Z,9.52
2023-02-13T07:30:34.292Z,9.50
2023-02-13T07:33:04.051Z,9.49
2023-02-13T07:35:32.067Z,9.52
2023-02-13T07:38:00.460Z,9.54
2023-02-13T07:40:28.290Z,9.56
2023-02-13T07:42:56.157Z,9.52
2023-02-13T07:45:23.884Z,9.52
2023-02-13T07:47:51.396Z,9.52
2023-02-13T07:50:21.202Z,9.49
2023-02-13T07:52:54.729Z,9.50
2023-02-13T07:55:22.629Z,9.50
2023-02-13T07:57:50.627Z,9.52
2023-02-13T08:00:19.453Z,9.53
2023-02-13T08:02:47.340Z,9.58
2023-02-13T08:05:15.071Z,9.56
2023-02-13T08:07:44.136Z,9.48
2023-02-13T08:10:31.764Z,9.55
2023-02-13T08:12:59.437Z,9.58
2023-02-13T08:15:27.423Z,9.59
2023-02-13T08:17:54.944Z,9.53
2023-02-13T08:20:22.948Z,9.60
2023-02-13T08:22:52.131Z,9.56
2023-02-13T08:25:19.890Z,9.61
2023-02-13T08:27:47.532Z,9.54
2023-02-13T08:30:16.161Z,9.58
2023-02-13T08:32:53.934Z,9.57
2023-02-13T08:35:22.957Z,9.64
2023-02-13T08:37:51.976Z,9.46
2023-02-13T08:40:19.726Z,9.55
2023-02-13T08:42:47.275Z,9.48
2023-02-13T08:45:14.721Z,9.43
2023-02-13T08:47:42.301Z,9.39
2023-02-13T08:50:10.549Z,9.51
2023-02-13T08:52:38.350Z,9.52
2023-02-13T08:55:07.547Z,9.58
2023-02-13T08:57:35.550Z,9.54
2023-02-13T09:00:03.703Z,9.49
2023-02-13T09:02:31.351Z,9.41
2023-02-13T09:04:59.031Z,9.49
2023-02-13T09:07:26.831Z,9.55
2023-02-13T09:09:54.439Z,9.45
2023-02-13T09:12:24.153Z,9.50
2023-02-13T09:14:52.456Z,9.57
2023-02-13T09:17:20.050Z,9.56
2023-02-13T09:19:47.724Z,9.47
2023-02-13T09:22:17.397Z,9.46
2023-02-13T09:24:45.024Z,9.56
2023-02-13T09:27:12.615Z,9.45
2023-02-13T09:29:41.719Z,9.46
2023-02-13T09:32:09.394Z,9.40
2023-02-13T09:34:36.937Z,9.42
2023-02-13T09:37:04.585Z,9.51
2023-02-13T09:39:32.365Z,9.60
2023-02-13T09:42:00.228Z,9.60
2023-02-13T09:44:38.968Z,9.60
2023-02-13T09:47:15.571Z,9.60
2023-02-13T09:49:45.960Z,9.63
2023-02-13T09:52:13.580Z,9.62
2023-02-13T09:54:41.063Z,9.62
2023-02-13T09:57:16.708Z,9.59
2023-02-13T09:59:57.181Z,9.59
2023-02-13T10:02:38.230Z,9.65
2023-02-13T10:05:15.093Z,9.41
2023-02-13T10:07:48.122Z,9.29
2023-02-13T10:10:22.103Z,9.50
2023-02-13T10:13:16.567Z,9.48
2023-02-13T10:15:49.541Z,9.55
2023-02-13T10:18:22.463Z,9.41
2023-02-13T10:20:53.172Z,9.58
2023-02-13T10:23:25.151Z,9.59
2023-02-13T10:25:56.295Z,9.54
2023-02-13T10:28:31.407Z,9.56
2023-02-13T10:31:02.319Z,9.68
2023-02-13T10:33:33.393Z,9.55
2023-02-13T10:36:03.539Z,9.66
2023-02-13T10:38:32.994Z,9.64
2023-02-13T10:41:19.914Z,9.62
2023-02-13T10:44:02.984Z,9.70
2023-02-13T10:46:37.568Z,9.68
2023-02-13T10:49:38.727Z,9.65
2023-02-13T10:52:13.206Z,9.59
2023-02-13T10:55:02.532Z,9.70
2023-02-13T10:57:40.408Z,9.74
2023-02-13T11:00:13.633Z,9.69
2023-02-13T11:02:41.339Z,9.68
2023-02-13T11:05:16.971Z,9.64
2023-02-13T11:07:46.760Z,9.71
2023-02-13T11:10:19.530Z,9.59
2023-02-13T11:12:47.238Z,9.70
2023-02-13T11:15:25.656Z,9.58
2023-02-13T11:17:55.000Z,9.61
2023-02-13T11:20:38.512Z,9.52
2023-02-13T11:23:20.224Z,9.64
2023-02-13T11:25:57.325Z,9.62
2023-02-13T11:28:25.358Z,9.65
2023-02-13T11:30:53.043Z,9.66
2023-02-13T11:33:25.320Z,9.56
2023-02-13T11:36:06.636Z,9.53
2023-02-13T11:38:34.465Z,9.72
2023-02-13T11:41:07.328Z,9.55
2023-02-13T11:43:36.880Z,9.48
2023-02-13T11:46:07.092Z,9.68
2023-02-13T11:48:35.282Z,9.65
2023-02-13T11:51:04.826Z,9.74
2023-02-13T11:53:34.088Z,9.67
2023-02-13T11:56:08.650Z,9.65
2023-02-13T11:58:36.575Z,9.67
2023-02-13T12:01:28.368Z,9.59
2023-02-13T12:04:04.393Z,9.60
2023-02-13T12:06:39.899Z,9.58
2023-02-13T12:09:13.890Z,9.71
2023-02-13T12:11:43.826Z,9.73
2023-02-13T12:14:14.090Z,9.64
2023-02-13T12:16:43.774Z,9.74
2023-02-13T12:19:16.261Z,9.68
2023-02-13T12:21:58.310Z,9.56
2023-02-13T12:24:37.236Z,9.65
2023-02-13T12:27:10.584Z,9.74
2023-02-13T12:30:04.779Z,9.73
2023-02-13T12:32:41.100Z,9.71
2023-02-13T12:35:29.526Z,9.66
2023-02-13T12:38:03.311Z,9.56
2023-02-13T12:40:40.193Z,9.72
2023-02-13T12:43:25.452Z,9.68
2023-02-13T12:45:54.976Z,9.68
2023-02-13T12:48:31.365Z,9.75
2023-02-13T12:51:08.408Z,9.67
2023-02-13T12:53:45.217Z,9.75
2023-02-13T12:56:23.809Z,9.76
2023-02-13T12:59:00.999Z,9.69
2023-02-13T13:01:45.041Z,9.75
2023-02-13T13:04:18.915Z,9.76
2023-02-13T13:06:59.404Z,9.79
2023-02-13T13:09:36.999Z,9.75
2023-02-13T13:12:31.464Z,9.79
2023-02-13T13:15:05.510Z,9.83
2023-02-13T13:17:43.897Z,9.80
2023-02-13T13:20:29.859Z,9.77
2023-02-13T13:23:01.058Z,9.82
2023-02-13T13:25:33.315Z,9.87
2023-02-13T13:28:04.628Z,9.90
2023-02-13T13:30:35.739Z,9.88
2023-02-13T13:33:06.984Z,9.82
2023-02-13T13:35:35.844Z,9.85
2023-02-13T13:38:10.067Z,9.78
2023-02-13T13:40:44.417Z,9.72
2023-02-13T13:43:21.471Z,9.88
2023-02-13T13:45:53.535Z,9.82
2023-02-13T13:48:57.092Z,9.86
2023-02-13T13:51:24.866Z,9.85
2023-02-13T13:54:36.503Z,9.90
2023-02-13T13:57:13.081Z,9.91
2023-02-13T14:00:01.640Z,9.93
2023-02-13T14:02:45.583Z,9.93
2023-02-13T14:05:26.460Z,9.99
2023-02-13T14:07:56.475Z,9.91
2023-02-13T14:10:58.112Z,9.88
2023-02-13T14:13:35.885Z,9.95
2023-02-13T14:16:04.778Z,9.93
2023-02-13T14:18:32.684Z,9.92
2023-02-13T14:21:01.456Z,10.00
2023-02-13T14:23:36.596Z,9.98
2023-02-13T14:26:29.912Z,9.98
2023-02-13T14:29:23.275Z,9.97
2023-02-13T14:32:01.060Z,9.97
2023-02-13T14:34:32.775Z,9.98
2023-02-13T14:37:08.527Z,9.90
2023-02-13T14:39:37.688Z,9.93
2023-02-13T14:42:07.015Z,9.96
2023-02-13T14:44:40.476Z,9.92
2023-02-13T14:47:18.858Z,9.99
2023-02-13T14:49:47.042Z,10.01
2023-02-13T14:52:18.570Z,9.99
2023-02-13T14:54:48.994Z,9.98
2023-02-13T14:57:18.865Z,9.89
2023-02-13T14:59:49.532Z,9.98
2023-02-13T15:02:21.095Z,9.99
2023-02-13T15:04:50.652Z,10.07
2023-02-13T15:07:23.371Z,10.00
2023-02-13T15:09:53.129Z,10.00
2023-02-13T15:12:29.287Z,9.95
2023-02-13T15:14:58.589Z,9.98
2023-02-13T15:17:29.362Z,10.01
2023-02-13T15:20:01.048Z,9.93
2023-02-13T15:22:32.568Z,9.98
2023-02-13T15:25:00.580Z,9.78
2023-02-13T15:27:29.668Z,9.74
2023-02-13T15:30:03.713Z,9.76
2023-02-13T15:32:34.124Z,9.69
2023-02-13T15:35:01.782Z,9.57
2023-02-13T15:37:31.560Z,9.65
2023-02-13T15:40:16.003Z,9.84
2023-02-13T15:42:43.588Z,9.64
2023-02-13T15:45:17.141Z,9.58
2023-02-13T15:47:45.406Z,9.82
2023-02-13T15:50:18.032Z,9.94
2023-02-13T15:52:45.638Z,9.69
2023-02-13T15:55:19.798Z,9.80
2023-02-13T15:57:47.444Z,9.80
2023-02-13T16:00:21.652Z,9.72
2023-02-13T16:02:49.891Z,9.61
2023-02-13T16:05:26.582Z,9.54
2023-02-13T16:08:20.115Z,9.69
2023-02-13T16:10:47.619Z,9.65
2023-02-13T16:13:18.160Z,9.71
2023-02-13T16:15:47.066Z,9.77
2023-02-13T16:18:20.045Z,9.76
2023-02-13T16:20:47.644Z,9.94
2023-02-13T16:23:18.179Z,9.96
2023-02-13T16:25:47.083Z,9.85
2023-02-13T16:28:18.915Z,9.77
2023-02-13T16:30:52.576Z,9.88
2023-02-13T16:33:28.036Z,10.03
2023-02-13T16:35:56.875Z,9.90
2023-02-13T16:38:28.205Z,10.06
2023-02-13T16:40:56.665Z,10.07
2023-02-13T16:43:42.374Z,9.99
2023-02-13T16:46:25.748Z,10.00
2023-02-13T16:49:14.747Z,9.97
2023-02-13T16:51:44.140Z,9.95
2023-02-13T16:54:20.940Z,10.05
2023-02-13T16:56:49.999Z,10.00
2023-02-13T16:59:33.419Z,9.95
2023-02-13T17:02:14.533Z,10.01
2023-02-13T17:04:44.322Z,9.91
2023-02-13T17:07:19.780Z,10.01
2023-02-13T17:09:53.720Z,9.97
2023-02-13T17:12:21.930Z,10.00
2023-02-13T17:14:49.659Z,10.03
2023-02-13T17:17:20.839Z,10.07
2023-02-13T17:19:49.868Z,9.97
2023-02-13T17:22:22.645Z,10.07
2023-02-13T17:24:50.209Z,9.84
2023-02-13T17:27:17.776Z,9.90
2023-02-13T17:29:45.282Z,9.92
2023-02-13T17:32:19.461Z,9.83
2023-02-13T17:34:47.202Z,9.89
2023-02-13T17:37:19.763Z,10.00
2023-02-13T17:39:48.332Z,9.99
2023-02-13T17:42:21.622Z,9.99
2023-02-13T17:44:49.187Z,9.99
2023-02-13T17:47:19.377Z,9.99
2023-02-13T17:49:47.785Z,9.95
2023-02-13T17:52:16.961Z,9.90
2023-02-13T17:54:45.185Z,9.98
2023-02-13T17:57:13.866Z,9.95
2023-02-13T17:59:41.803Z,9.92
2023-02-13T18:02:18.684Z,9.88
2023-02-13T18:04:47.498Z,9.97
2023-02-13T18:07:17.034Z,9.97
2023-02-13T18:09:47.824Z,9.87
2023-02-13T18:12:18.726Z,9.80
2023-02-13T18:14:46.600Z,9.87
2023-02-13T18:17:14.876Z,9.81
2023-02-13T18:19:44.242Z,9.88
2023-02-13T18:22:12.752Z,9.81
2023-02-13T18:24:42.461Z,9.87
2023-02-13T18:27:11.087Z,9.90
2023-02-13T18:29:39.074Z,9.84
2023-02-13T18:32:10.235Z,9.86
2023-02-13T18:34:39.192Z,9.96
2023-02-13T18:37:08.721Z,9.85
2023-02-13T18:39:36.278Z,9.83
2023-02-13T18:42:04.645Z,9.91
2023-02-13T18:44:32.132Z,9.96
2023-02-13T18:46:59.917Z,9.87
2023-02-13T18:49:27.624Z,9.82
2023-02-13T18:51:55.563Z,9.89
2023-02-13T18:54:24.734Z,9.91
2023-02-13T18:56:52.243Z,9.80
2023-02-13T18:59:19.777Z,9.74
2023-02-13T19:01:47.911Z,9.80
2023-02-13T19:04:16.031Z,9.90
2023-02-13T19:06:44.333Z,9.82
2023-02-13T19:09:11.955Z,9.86
2023-02-13T19:11:40.901Z,9.68
2023-02-13T19:14:08.894Z,9.71
2023-02-13T19:16:36.953Z,9.69
2023-02-13T19:19:07.519Z,9.63
2023-02-13T19:21:37.666Z,9.65
2023-02-13T19:24:06.616Z,9.74
2023-02-13T19:26:34.388Z,9.80
2023-02-13T19:29:03.841Z,9.72
2023-02-13T19:31:33.489Z,9.81
2023-02-13T19:34:01.645Z,9.80
2023-02-13T19:36:30.258Z,9.77
2023-02-13T19:38:59.440Z,9.71
2023-02-13T19:41:27.232Z,9.68
2023-02-13T19:43:54.924Z,9.69
2023-02-13T19:46:25.773Z,9.75
2023-02-13T19:48:53.742Z,9.75
2023-02-13T19:51:25.299Z,9.73
2023-02-13T19:53:56.800Z,9.77
2023-02-13T19:56:24.787Z,9.78
2023-02-13T19:58:52.559Z,9.71
2023-02-13T20:01:22.570Z,9.79
2023-02-13T20:03:51.780Z,9.77
2023-02-13T20:06:21.447Z,9.78
2023-02-13T20:08:49.405Z,9.75
2023-02-13T20:11:18.433Z,9.70
2023-02-13T20:13:46.116Z,9.68
2023-02-13T20:16:15.470Z,9.70
2023-02-13T20:18:43.550Z,9.76
2023-02-13T20:21:14.724Z,9.76
2023-02-13T20:23:42.766Z,9.73
2023-02-13T20:26:13.673Z,9.73
2023-02-13T20:28:42.095Z,9.66
2023-02-13T20:31:11.594Z,9.70
2023-02-13T20:33:39.584Z,9.72
2023-02-13T20:36:12.871Z,9.67
2023-02-13T20:38:40.585Z,9.68
2023-02-13T20:41:09.333Z,9.65
2023-02-13T20:43:37.288Z,9.74
2023-02-13T20:46:05.053Z,9.71
2023-02-13T20:48:32.845Z,9.70
2023-02-13T20:51:01.049Z,9.54
2023-02-13T20:53:30.691Z,9.63
2023-02-13T20:56:03.405Z,9.66
2023-02-13T20:58:32.004Z,9.70
2023-02-13T21:01:00.225Z,9.63
2023-02-13T21:03:28.271Z,9.59
2023-02-13T21:05:55.870Z,9.51
2023-02-13T21:08:23.441Z,9.59
2023-02-13T21:10:52.272Z,9.66
2023-02-13T21:13:19.745Z,9.70
2023-02-13T21:15:50.564Z,9.62
2023-02-13T21:18:20.353Z,9.47
2023-02-13T21:20:50.339Z,9.56
2023-02-13T21:23:17.988Z,9.27
2023-02-13T21:25:45.606Z,9.41
2023-02-13T21:28:14.551Z,9.46
2023-02-13T21:31:02.501Z,9.48
2023-02-13T21:33:30.383Z,9.56
2023-02-13T22:00:11.973Z,9.35
2023-02-13T22:02:40.920Z,9.54
2023-02-13T22:05:12.205Z,9.48
2023-02-13T22:10:24.418Z,9.33
2023-02-13T22:13:19.148Z,9.21
2023-02-13T22:18:52.196Z,9.42
2023-02-13T22:21:39.427Z,9.50
2023-02-13T22:24:12.036Z,9.52
2023-02-13T22:32:06.801Z,9.46
2023-02-13T22:34:35.234Z,9.50
2023-02-13T22:37:03.957Z,9.46
2023-02-13T22:42:28.297Z,9.39
2023-02-13T22:47:44.701Z,9.49
2023-02-13T22:50:29.190Z,9.45
2023-02-13T22:52:59.156Z,9.32
2023-02-13T22:55:28.224Z,9.41
2023-02-13T23:15:00.678Z,9.51
2023-02-13T23:20:29.912Z,9.50
2023-02-13T23:22:59.757Z,9.52
2023-02-13T23:25:27.335Z,9.44
2023-02-13T23:27:57.013Z,9.47
2023-02-13T23:30:25.292Z,9.43
2023-02-13T23:32:52.950Z,9.30
2023-02-13T23:35:20.555Z,9.41
2023-02-13T23:37:48.105Z,9.35
2023-02-13T23:40:17.983Z,9.29
2023-02-13T23:42:45.689Z,9.38
2023-02-13T23:45:13.946Z,9.31
2023-02-13T23:47:41.566Z,9.31
2023-02-13T23:50:09.676Z,9.38
2023-02-13T23:52:37.428Z,9.30
2023-02-13T23:55:05.289Z,9.37
2023-02-13T23:57:34.127Z,9.36
